Flight Track Log - Related Links

Times and Time Zones

All times are in EDT time to prevent confusion due to time zone crossing. See the CTL17 flight status page for this flight to view local times or setup timezone preferences in your user account.

Time Position Orientation Groundspeed Altitude Reporting Facility
EDT Latitude Longitude Course Direction KTS MPH feet Rate Location/Type
Wed 04:57:00 PM 43.3904 -84.0180 160° South  Level Estimated
Wed 04:58:00 PM 43.3637 -83.9994 153° Southeast  Level FlightAware Approximate
Wed 04:59:00 PM 43.3371 -83.9809 153° Southeast  Level FlightAware Approximate
Wed 05:00:00 PM 43.3085 -83.9689 160° South  Level Estimated
Wed 05:01:00 PM 43.2809 -83.9532 157° South  Level FlightAware Approximate
Wed 05:02:00 PM 43.2533 -83.9375 157° South  Level FlightAware Approximate
Wed 05:03:00 PM 43.2246 -83.9258 163° South  Level Estimated
Wed 05:04:00 PM 43.1964 -83.9124 161° South  Level FlightAware Approximate
Wed 05:05:00 PM 43.1682 -83.8990 161° South  Level FlightAware Approximate
Wed 05:06:00 PM 43.1399 -83.8856 161° South  Level FlightAware Approximate
Wed 05:07:00 PM 43.1113 -83.8741 160° South  Level Estimated
Wed 05:07:21 PM 42.8975 -83.7717 160° South 158 182 5,100  Level Cleveland Center
Wed 05:08:00 PM 43.0832 -83.8599 160° South  Level FlightAware Approximate
Wed 05:08:10 PM 42.8625 -83.7558 162° South 160 184 5,100  Level Cleveland Center
Wed 05:09:00 PM 43.0552 -83.8456 160° South  Level FlightAware Approximate
Wed 05:09:10 PM 42.8214 -83.7367 161° South 160 184 5,100  Level Cleveland Center
Wed 05:10:00 PM 43.0272 -83.8314 160° South  Level FlightAware Approximate
Wed 05:10:11 PM 42.7758 -83.7258 170° South 158 182 5,100  Level Cleveland Center
Wed 05:11:00 PM 42.9992 -83.8172 160° South  Level FlightAware Approximate
Wed 05:11:12 PM 42.7344 -83.7097 164° South 159 183 5,100  Level Cleveland Center
Wed 05:12:00 PM 42.9712 -83.8030 160° South  Level FlightAware Approximate
Wed 05:12:13 PM 42.6911 -83.6992 170° South 156 180 5,000  Level Cleveland Center
Wed 05:13:14 PM 42.6478 -83.6856 167° South 157 181 5,000 -148 Level Cleveland Center
Wed 05:14:15 PM 42.6042 -83.6722 167° South 164 189 4,700 -397 Descending Cleveland Center
Wed 05:15:15 PM 42.5544 -83.6583 168° South 171 197 4,200 -298 Descending Cleveland Center
Wed 05:16:16 PM 42.5111 -83.6450 167° South 165 190 4,100 -98 Descending Cleveland Center
Wed 05:17:17 PM 42.4678 -83.6317 167° South 153 176 4,000  Descending Cleveland Center
Wed 05:18:18 PM 42.4244 -83.6128 162° South 153 176 4,100 -149 Climbing Cleveland Center
Wed 05:19:18 PM 42.3811 -83.5939 162° South 164 189 3,700 -744 Descending Cleveland Center
Wed 05:20:19 PM 42.3358 -83.5747 163° South 181 208 2,600 -885 Descending Cleveland Center
Wed 05:21:20 PM 42.2950 -83.5447 151° Southeast 161 185 1,900 -590 Descending Cleveland Center
Wed 05:22:21 PM 42.2642 -83.5236 153° Southeast 119 137 1,400 -492 Descending Cleveland Center
Wed 05:24:00 PM 42.2333 -83.5167 160° South  Level FlightAware Approximate

Login

Don't have an account? Register now (free) for customized features, flight alerts, and more!